Time;durP1;ratioP1;P1;durP2;ratioP2;P2;SDS_P1;SDS_P2;PMS_P1;PMS_P2;Temp;Humidity;BMP_temperature;BMP_pressure;BME280_temperature;BME280_humidity;BME280_pressure;Samples;Min_cycle;Max_cycle;Signal;HPM_P1;HPM_P2
2022/03/18 00:01:00;;;;;;;11.50;4.40;;;;;1.40;99439.20;;;;111095;1247;41244;-65
2022/03/18 00:03:30;;;;;;;12.60;4.60;;;;;1.40;99446.60;;;;111000;1250;41625;-66
2022/03/18 00:06:00;;;;;;;11.60;4.20;;;;;1.40;99440.00;;;;110898;1249;43025;-65
2022/03/18 00:08:30;;;;;;;9.50;4.10;;;;;1.36;99439.40;;;;111175;1247;41587;-66
2022/03/18 00:11:01;;;;;;;9.00;3.80;;;;;1.30;99443.80;;;;111218;1245;41258;-66
2022/03/18 00:13:31;;;;;;;10.20;4.30;;;;;1.30;99439.60;;;;111034;1247;41191;-68
2022/03/18 00:16:01;;;;;;;12.20;4.00;;;;;1.30;99443.80;;;;111290;1247;42197;-65
2022/03/18 00:18:31;;;;;;;9.60;4.10;;;;;1.20;99441.20;;;;110935;1247;41246;-65
2022/03/18 00:21:00;;;;;;;9.60;4.20;;;;;1.20;99446.80;;;;111069;1247;41601;-66
2022/03/18 00:23:30;;;;;;;8.30;3.60;;;;;1.20;99449.40;;;;111055;1249;41726;-66
2022/03/18 00:26:00;;;;;;;9.20;3.80;;;;;1.20;99448.80;;;;111112;1247;41143;-65
2022/03/18 00:28:30;;;;;;;11.00;4.40;;;;;1.16;99446.40;;;;111011;1247;41249;-66
2022/03/18 00:31:03;;;;;;;10.10;4.10;;;;;1.10;99449.60;;;;111081;1247;41293;-65
2022/03/18 00:33:33;;;;;;;9.90;4.20;;;;;1.10;99452.00;;;;111190;1247;41505;-66
2022/03/18 00:36:03;;;;;;;11.10;4.30;;;;;1.08;99453.00;;;;111236;1247;40904;-64
2022/03/18 00:38:34;;;;;;;9.80;4.00;;;;;1.02;99460.20;;;;111167;1247;40870;-66
2022/03/18 00:41:04;;;;;;;;;;;;;1.00;99463.80;;;;111092;1247;41154;-66
2022/03/18 00:43:33;;;;;;;8.40;3.80;;;;;0.98;99469.60;;;;111071;1247;42383;-67
2022/03/18 00:46:06;;;;;;;9.40;4.10;;;;;0.90;99470.00;;;;111083;1247;41242;-66
2022/03/18 00:54:12;;;;;;;8.90;3.70;;;;;0.80;99474.20;;;;111140;1247;42062;-65
2022/03/18 00:56:42;;;;;;;9.90;4.10;;;;;0.70;99470.20;;;;111023;1248;41584;-65
2022/03/18 00:59:12;;;;;;;9.70;3.90;;;;;0.70;99477.00;;;;111076;1248;42306;-67
2022/03/18 01:01:42;;;;;;;10.10;3.80;;;;;0.70;99475.60;;;;110800;1250;41143;-65
2022/03/18 01:04:12;;;;;;;9.50;3.90;;;;;0.66;99476.80;;;;111190;1247;41595;-66
2022/03/18 01:06:42;;;;;;;9.40;3.40;;;;;0.60;99476.00;;;;111075;1247;41565;-66
2022/03/18 01:09:12;;;;;;;7.60;3.40;;;;;0.60;99475.40;;;;111077;1247;41944;-66
2022/03/18 01:11:43;;;;;;;9.20;3.60;;;;;0.58;99474.80;;;;111092;1247;41159;-65
2022/03/18 01:14:13;;;;;;;9.50;3.40;;;;;0.50;99478.00;;;;111107;1247;42015;-66
2022/03/18 01:16:43;;;;;;;8.30;3.40;;;;;0.50;99475.20;;;;111150;1247;41138;-65
2022/03/18 01:19:13;;;;;;;10.00;4.10;;;;;0.50;99474.00;;;;111071;1248;41151;-66
2022/03/18 01:21:43;;;;;;;9.30;3.70;;;;;0.40;99479.80;;;;111060;1248;41593;-65
2022/03/18 01:24:15;;;;;;;10.40;3.90;;;;;0.30;99489.00;;;;110858;1249;42664;-66
2022/03/18 01:26:47;;;;;;;9.50;3.80;;;;;0.30;99484.60;;;;111182;1247;41232;-65
2022/03/18 01:29:18;;;;;;;7.70;3.20;;;;;0.20;99487.40;;;;111156;1246;41692;-66
2022/03/18 01:31:49;;;;;;;11.20;3.70;;;;;0.20;99488.40;;;;110894;1249;41178;-67
2022/03/18 01:34:19;;;;;;;7.80;3.40;;;;;0.10;99489.80;;;;111070;1247;41226;-65
2022/03/18 01:36:50;;;;;;;11.10;3.70;;;;;0.10;99485.20;;;;111086;1248;41250;-66
2022/03/18 01:39:22;;;;;;;7.50;3.30;;;;;0.08;99485.40;;;;111248;1245;41254;-65
2022/03/18 01:41:53;;;;;;;8.60;3.80;;;;;0.00;99479.00;;;;111155;1247;41676;-66
2022/03/18 01:44:22;;;;;;;9.10;3.80;;;;;0.00;99476.80;;;;111224;1247;41305;-66
2022/03/18 01:46:52;;;;;;;8.20;3.50;;;;;-0.10;99485.80;;;;111256;1246;41781;-66
2022/03/18 01:49:23;;;;;;;8.60;3.20;;;;;-0.10;99488.40;;;;110915;1249;42412;-66
2022/03/18 01:51:53;;;;;;;9.70;3.40;;;;;-0.20;99488.20;;;;111117;1247;41903;-65
2022/03/18 01:57:14;;;;;;;8.50;3.50;;;;;-0.28;99496.20;;;;111105;1247;41783;-65
2022/03/18 01:59:44;;;;;;;8.20;3.40;;;;;-0.30;99492.80;;;;111084;1247;41143;-65
2022/03/18 02:02:15;;;;;;;;;;;;;-0.40;99493.20;;;;111114;1247;42204;-66
2022/03/18 02:04:46;;;;;;;9.30;3.70;;;;;-0.46;99499.60;;;;111213;1247;40894;-66
2022/03/18 02:07:18;;;;;;;8.10;3.20;;;;;-0.50;99504.20;;;;111158;1247;41148;-64
2022/03/18 02:09:48;;;;;;;9.80;3.80;;;;;-0.60;99507.40;;;;111277;1247;41720;-64
2022/03/18 02:12:20;;;;;;;9.40;3.30;;;;;-0.60;99506.80;;;;111079;1247;41260;-66
2022/03/18 02:14:50;;;;;;;8.40;3.50;;;;;-0.70;99516.80;;;;111125;1248;41155;-66
2022/03/18 02:17:20;;;;;;;8.90;3.60;;;;;-0.80;99510.00;;;;111120;1248;42105;-66
2022/03/18 02:19:50;;;;;;;7.80;3.50;;;;;-0.80;99512.40;;;;111055;1248;42468;-67
2022/03/18 02:22:23;;;;;;;9.40;3.50;;;;;-0.90;99510.60;;;;111080;1249;41133;-68
2022/03/18 02:24:55;;;;;;;7.70;3.00;;;;;-0.90;99512.40;;;;111359;1247;41131;-66
2022/03/18 02:27:25;;;;;;;6.60;2.90;;;;;-1.00;99509.00;;;;111448;1247;41148;-67
2022/03/18 02:29:55;;;;;;;8.50;3.10;;;;;-1.10;99516.00;;;;111129;1248;41755;-63
2022/03/18 02:32:25;;;;;;;7.50;3.10;;;;;-1.20;99513.00;;;;111129;1248;41295;-66
2022/03/18 02:34:55;;;;;;;8.50;3.30;;;;;-1.22;99521.40;;;;111173;1247;41624;-66
2022/03/18 02:37:26;;;;;;;9.30;3.20;;;;;-1.30;99529.60;;;;111079;1249;41588;-65
2022/03/18 02:39:56;;;;;;;7.30;3.50;;;;;-1.40;99526.80;;;;110968;1250;41614;-65
2022/03/18 02:42:27;;;;;;;8.30;3.30;;;;;-1.40;99531.40;;;;111117;1247;41153;-63
2022/03/18 02:44:57;;;;;;;8.00;3.20;;;;;-1.46;99532.80;;;;110949;1248;41513;-64
2022/03/18 02:47:27;;;;;;;8.60;3.70;;;;;-1.50;99537.40;;;;111070;1247;41131;-65
2022/03/18 02:49:58;;;;;;;10.40;3.40;;;;;-1.50;99541.20;;;;111304;1247;41726;-65
2022/03/18 02:52:28;;;;;;;7.60;3.20;;;;;-1.60;99537.00;;;;111113;1247;42632;-67
2022/03/18 02:54:59;;;;;;;7.60;3.50;;;;;-1.68;99539.20;;;;111109;1247;41251;-66
2022/03/18 02:57:32;;;;;;;8.70;3.60;;;;;-1.70;99545.20;;;;111073;1247;42195;-68
2022/03/18 03:00:02;;;;;;;8.50;3.70;;;;;-1.80;99549.20;;;;111423;1247;41123;-66
2022/03/18 03:02:34;;;;;;;11.70;4.20;;;;;-1.80;99544.40;;;;111123;1246;41311;-65
2022/03/18 03:08:00;;;;;;;8.80;3.70;;;;;-1.98;99550.60;;;;110902;1248;41609;-65
2022/03/18 03:10:32;;;;;;;8.70;3.60;;;;;-2.00;99557.00;;;;110929;1250;41513;-66
2022/03/18 03:13:06;;;;;;;9.30;3.70;;;;;-2.10;99562.60;;;;111089;1247;41131;-65
2022/03/18 03:15:38;;;;;;;7.90;3.40;;;;;-2.16;99562.40;;;;111203;1247;41722;-65
2022/03/18 03:18:08;;;;;;;10.90;3.40;;;;;-2.20;99560.20;;;;111076;1249;41320;-65
2022/03/18 03:20:38;;;;;;;9.80;4.00;;;;;-2.26;99565.00;;;;111109;1248;41478;-65
2022/03/18 03:23:09;;;;;;;8.80;3.60;;;;;-2.30;99568.40;;;;110881;1248;42309;-65
2022/03/18 03:25:40;;;;;;;8.10;3.40;;;;;-2.34;99572.80;;;;111071;1247;41134;-64
2022/03/18 03:28:09;;;;;;;9.00;3.70;;;;;-2.40;99572.40;;;;111052;1248;41158;-64
2022/03/18 03:30:39;;;;;;;8.80;3.90;;;;;-2.40;99581.20;;;;111132;1248;41145;-65
2022/03/18 03:33:10;;;;;;;10.80;4.30;;;;;-2.50;99584.40;;;;111158;1247;41604;-65
2022/03/18 03:35:41;;;;;;;9.00;4.50;;;;;-2.50;99583.20;;;;111057;1249;41390;-66
2022/03/18 03:38:14;;;;;;;9.50;4.20;;;;;-2.60;99582.20;;;;111046;1247;41136;-64
2022/03/18 03:40:44;;;;;;;9.10;3.80;;;;;-2.60;99591.80;;;;110890;1248;41260;-65
2022/03/18 03:43:14;;;;;;;8.40;3.90;;;;;-2.64;99594.20;;;;111153;1247;41264;-64
2022/03/18 03:45:44;;;;;;;8.50;3.90;;;;;-2.70;99595.20;;;;111406;1246;42188;-65
2022/03/18 03:48:14;;;;;;;7.30;3.30;;;;;-2.74;99592.40;;;;111048;1248;41157;-64
2022/03/18 03:50:44;;;;;;;7.80;3.30;;;;;-2.80;99598.00;;;;111031;1247;41618;-65
2022/03/18 03:53:14;;;;;;;8.40;3.40;;;;;-2.80;99603.80;;;;111060;1248;41499;-65
2022/03/18 03:55:45;;;;;;;9.80;3.70;;;;;-2.90;99603.80;;;;111068;1248;42238;-66
2022/03/18 03:58:16;;;;;;;8.30;3.70;;;;;-2.90;99605.40;;;;111183;1248;42295;-67
2022/03/18 04:00:45;;;;;;;9.50;3.60;;;;;-3.00;99604.80;;;;111065;1248;42291;-64
2022/03/18 04:03:15;;;;;;;9.40;3.90;;;;;-3.00;99605.40;;;;111253;1247;41551;-65
2022/03/18 04:05:46;;;;;;;8.50;3.60;;;;;-3.06;99612.00;;;;110910;1248;41143;-66
2022/03/18 04:08:15;;;;;;;9.40;3.90;;;;;-3.10;99616.00;;;;111147;1245;41181;-65
2022/03/18 04:10:45;;;;;;;9.30;4.70;;;;;-3.10;99616.00;;;;111062;1249;41157;-64
2022/03/18 04:13:15;;;;;;;11.10;4.40;;;;;-3.18;99613.40;;;;111006;1250;41415;-65
2022/03/18 04:15:45;;;;;;;11.90;5.40;;;;;-3.20;99616.00;;;;111072;1248;41775;-64
2022/03/18 04:18:15;;;;;;;11.40;5.00;;;;;-3.20;99625.00;;;;111138;1248;41465;-63
2022/03/18 04:20:45;;;;;;;12.90;5.20;;;;;-3.30;99627.40;;;;111156;1247;41601;-64
2022/03/18 04:23:15;;;;;;;10.20;4.80;;;;;-3.30;99628.60;;;;111115;1247;41274;-66
2022/03/18 04:25:45;;;;;;;12.30;5.30;;;;;-3.40;99635.60;;;;111122;1248;41802;-65
2022/03/18 04:28:15;;;;;;;10.70;4.80;;;;;-3.40;99634.40;;;;111096;1249;42094;-68
2022/03/18 04:30:45;;;;;;;10.40;4.70;;;;;-3.50;99636.80;;;;111053;1248;42266;-67
2022/03/18 04:33:14;;;;;;;13.20;4.30;;;;;-3.60;99643.80;;;;110996;1250;41915;-65
2022/03/18 04:35:44;;;;;;;9.80;4.40;;;;;-3.60;99650.40;;;;111074;1248;41179;-66
2022/03/18 04:38:13;;;;;;;10.20;4.70;;;;;-3.70;99652.80;;;;111177;1247;41478;-65
2022/03/18 04:40:43;;;;;;;11.60;4.50;;;;;-3.70;99654.00;;;;111110;1247;41362;-65
2022/03/18 04:43:13;;;;;;;10.90;5.30;;;;;-3.70;99660.20;;;;111051;1249;41611;-65
2022/03/18 04:45:42;;;;;;;10.70;5.00;;;;;-3.70;99659.40;;;;111025;1248;41786;-66
2022/03/18 04:48:13;;;;;;;13.90;5.60;;;;;-3.74;99660.00;;;;111057;1250;41694;-66
2022/03/18 04:50:42;;;;;;;12.00;5.10;;;;;-3.70;99657.00;;;;111020;1248;41663;-64
2022/03/18 04:53:12;;;;;;;11.60;5.30;;;;;-3.70;99659.00;;;;111067;1248;41816;-65
2022/03/18 04:55:41;;;;;;;12.90;5.10;;;;;-3.70;99667.20;;;;110971;1247;41144;-66
2022/03/18 04:58:11;;;;;;;12.80;4.90;;;;;-3.64;99667.00;;;;110994;1249;42172;-66
2022/03/18 05:00:41;;;;;;;9.60;4.30;;;;;-3.60;99660.80;;;;110960;1250;41142;-66
2022/03/18 05:03:10;;;;;;;8.90;4.30;;;;;-3.52;99666.00;;;;111039;1250;41897;-65
2022/03/18 05:05:40;;;;;;;8.90;3.90;;;;;-3.42;99664.00;;;;111020;1248;41176;-65
2022/03/18 05:08:09;;;;;;;9.60;3.80;;;;;-3.36;99659.60;;;;111054;1248;41272;-64
2022/03/18 05:10:39;;;;;;;8.90;3.90;;;;;-3.24;99663.00;;;;111307;1247;41511;-66
2022/03/18 05:13:09;;;;;;;9.30;3.90;;;;;-3.10;99669.40;;;;110858;1250;41135;-66
2022/03/18 05:15:39;;;;;;;8.70;4.20;;;;;-3.00;99672.40;;;;111073;1247;41165;-65
2022/03/18 05:18:08;;;;;;;13.60;5.80;;;;;-2.90;99674.00;;;;111317;1247;41129;-65
2022/03/18 05:20:38;;;;;;;15.20;5.50;;;;;-2.76;99674.40;;;;110936;1248;41156;-64
2022/03/18 05:23:07;;;;;;;10.70;4.80;;;;;-2.60;99671.80;;;;111277;1247;41253;-65
2022/03/18 05:25:40;;;;;;;10.10;4.60;;;;;-2.46;99674.60;;;;111141;1247;41268;-65
2022/03/18 05:28:10;;;;;;;11.90;4.60;;;;;-2.30;99674.60;;;;111157;1247;42016;-65
2022/03/18 05:30:40;;;;;;;10.00;4.50;;;;;-2.10;99677.20;;;;111133;1247;41640;-65
2022/03/18 05:33:10;;;;;;;12.50;4.90;;;;;-1.92;99680.00;;;;111157;1247;41751;-65
2022/03/18 05:35:39;;;;;;;13.60;5.50;;;;;-1.80;99677.20;;;;111108;1248;41294;-64
2022/03/18 05:38:09;;;;;;;12.30;5.50;;;;;-1.60;99679.60;;;;110995;1250;41521;-64
2022/03/18 05:40:38;;;;;;;16.00;6.60;;;;;-1.40;99680.20;;;;111064;1249;41252;-64
2022/03/18 05:43:08;;;;;;;17.80;7.80;;;;;-1.20;99681.00;;;;111138;1247;41574;-64
2022/03/18 05:45:37;;;;;;;20.70;9.10;;;;;-1.00;99679.60;;;;111037;1247;41596;-64
2022/03/18 05:48:07;;;;;;;18.20;8.30;;;;;-0.90;99676.40;;;;110970;1248;41277;-65
2022/03/18 05:50:36;;;;;;;16.80;7.30;;;;;-0.70;99677.40;;;;111083;1247;41149;-64
2022/03/18 05:53:06;;;;;;;17.50;7.60;;;;;-0.50;99676.20;;;;111091;1248;41201;-62
2022/03/18 05:58:23;;;;;;;24.80;10.40;;;;;-0.12;99675.60;;;;111216;1247;41132;-65
2022/03/18 06:00:53;;;;;;;28.60;11.70;;;;;0.06;99672.60;;;;111245;1247;41943;-66
2022/03/18 06:03:24;;;;;;;30.80;12.40;;;;;0.30;99670.60;;;;111120;1248;41260;-66
2022/03/18 06:05:54;;;;;;;30.90;12.50;;;;;0.50;99666.60;;;;111122;1247;41612;-65
2022/03/18 06:13:59;;;;;;;25.70;10.40;;;;;1.06;99665.00;;;;111098;1248;41739;-65
2022/03/18 06:16:29;;;;;;;16.70;7.50;;;;;1.30;99663.00;;;;111089;1248;41141;-65
2022/03/18 06:18:59;;;;;;;14.10;6.10;;;;;1.50;99660.60;;;;111125;1247;41132;-66
2022/03/18 06:21:28;;;;;;;13.90;5.70;;;;;1.74;99661.00;;;;111050;1247;41675;-67
2022/03/18 06:23:58;;;;;;;11.10;4.80;;;;;2.00;99663.20;;;;110834;1251;41268;-65
2022/03/18 06:26:27;;;;;;;11.30;5.10;;;;;2.20;99664.00;;;;111001;1249;41168;-65
2022/03/18 06:28:56;;;;;;;12.60;5.40;;;;;2.40;99664.20;;;;111000;1249;41690;-65
2022/03/18 06:31:25;;;;;;;12.70;5.30;;;;;2.60;99673.60;;;;111124;1247;41257;-65
2022/03/18 06:33:55;;;;;;;11.90;5.10;;;;;2.80;99672.20;;;;111119;1248;41724;-65
2022/03/18 06:36:25;;;;;;;12.60;5.00;;;;;2.90;99669.40;;;;111175;1247;41596;-65
2022/03/18 06:38:54;;;;;;;10.40;4.90;;;;;3.10;99674.20;;;;111141;1248;41150;-65
2022/03/18 06:41:23;;;;;;;10.30;4.70;;;;;3.22;99674.80;;;;111087;1248;41345;-65
2022/03/18 06:43:53;;;;;;;11.90;4.70;;;;;3.30;99679.40;;;;111101;1247;41258;-63
2022/03/18 06:46:23;;;;;;;14.70;5.50;;;;;3.40;99681.80;;;;110920;1250;41355;-66
2022/03/18 06:48:53;;;;;;;12.50;5.00;;;;;3.46;99676.20;;;;111045;1247;41784;-66
2022/03/18 06:51:23;;;;;;;10.10;4.00;;;;;3.60;99683.20;;;;111115;1247;41154;-65
2022/03/18 06:53:55;;;;;;;10.30;4.30;;;;;3.80;99682.60;;;;111031;1247;41415;-65
2022/03/18 06:56:25;;;;;;;11.30;4.40;;;;;4.00;99683.80;;;;110755;1249;41628;-65
2022/03/18 06:58:55;;;;;;;11.70;4.90;;;;;4.20;99683.20;;;;111058;1248;41241;-65
2022/03/18 07:01:25;;;;;;;15.40;4.80;;;;;4.40;99682.00;;;;111100;1247;41830;-64
2022/03/18 07:03:54;;;;;;;8.50;3.70;;;;;4.40;99680.60;;;;111044;1248;41265;-65
2022/03/18 07:06:23;;;;;;;13.00;4.60;;;;;4.46;99680.20;;;;110986;1248;41150;-65
2022/03/18 07:08:53;;;;;;;11.30;4.50;;;;;4.50;99678.00;;;;111176;1247;41144;-66
2022/03/18 07:11:23;;;;;;;13.60;4.40;;;;;4.68;99680.40;;;;111003;1248;41341;-66
2022/03/18 07:13:53;;;;;;;11.80;4.50;;;;;4.76;99681.00;;;;111115;1247;41149;-65
2022/03/18 07:19:10;;;;;;;10.00;4.30;;;;;5.10;99685.60;;;;111037;1247;41429;-66
2022/03/18 07:21:40;;;;;;;10.20;4.10;;;;;5.20;99682.60;;;;111047;1247;41602;-66
2022/03/18 07:24:09;;;;;;;10.10;4.20;;;;;5.24;99684.20;;;;110984;1247;41252;-67
2022/03/18 07:26:40;;;;;;;8.80;3.90;;;;;5.30;99683.80;;;;111091;1247;41279;-66
2022/03/18 07:29:09;;;;;;;8.20;3.60;;;;;5.40;99683.60;;;;110884;1248;41146;-67
2022/03/18 07:31:39;;;;;;;8.40;3.50;;;;;5.50;99679.20;;;;110146;1247;1138774;-66
2022/03/18 07:34:08;;;;;;;11.50;3.80;;;;;5.70;99682.20;;;;111114;1247;41277;-65
2022/03/18 07:36:38;;;;;;;11.70;4.50;;;;;5.90;99680.20;;;;110992;1248;41170;-65
2022/03/18 07:39:07;;;;;;;10.10;4.20;;;;;5.90;99684.80;;;;111029;1250;41149;-66
2022/03/18 07:41:36;;;;;;;12.10;4.40;;;;;6.10;99687.20;;;;110808;1250;41937;-66
2022/03/18 07:44:05;;;;;;;10.20;3.70;;;;;6.30;99682.60;;;;110995;1246;41141;-65
2022/03/18 07:46:36;;;;;;;9.10;3.80;;;;;6.50;99686.60;;;;111165;1247;41352;-66
2022/03/18 07:49:05;;;;;;;12.10;4.80;;;;;6.74;99685.60;;;;111361;1246;41742;-65
2022/03/18 07:51:36;;;;;;;11.10;4.50;;;;;6.90;99686.40;;;;111304;1247;41440;-65
2022/03/18 07:54:05;;;;;;;11.50;4.30;;;;;6.96;99690.80;;;;111277;1247;41132;-65
2022/03/18 07:56:35;;;;;;;10.00;4.00;;;;;7.10;99688.20;;;;111088;1247;41202;-66
2022/03/18 07:59:04;;;;;;;9.90;4.10;;;;;7.30;99682.80;;;;111059;1249;41243;-65
2022/03/18 08:01:35;;;;;;;10.20;4.50;;;;;7.30;99686.60;;;;110870;1247;42898;-66
2022/03/18 08:04:04;;;;;;;9.90;3.70;;;;;7.40;99680.80;;;;111123;1248;41371;-66
2022/03/18 08:06:34;;;;;;;9.70;3.90;;;;;7.50;99681.00;;;;111015;1248;41591;-66
2022/03/18 08:09:03;;;;;;;10.10;4.30;;;;;7.76;99677.60;;;;111254;1246;41114;-64
2022/03/18 08:11:33;;;;;;;8.50;3.80;;;;;7.96;99680.40;;;;111057;1248;41992;-66
2022/03/18 08:14:02;;;;;;;8.40;3.70;;;;;8.12;99676.60;;;;111108;1247;41189;-66
2022/03/18 08:16:32;;;;;;;8.00;3.30;;;;;8.36;99679.00;;;;111443;1247;41932;-66
2022/03/18 08:19:01;;;;;;;8.90;3.60;;;;;8.50;99679.60;;;;111119;1247;41147;-66
2022/03/18 08:21:32;;;;;;;8.90;3.70;;;;;8.70;99672.00;;;;111087;1248;42089;-66
2022/03/18 08:24:03;;;;;;;8.00;3.70;;;;;9.04;99676.60;;;;111100;1247;41145;-66
2022/03/18 08:26:36;;;;;;;7.60;3.60;;;;;9.86;99668.60;;;;111239;1247;41151;-64
2022/03/18 08:29:05;;;;;;;9.00;3.90;;;;;11.22;99652.00;;;;110867;1247;41242;-66
2022/03/18 08:31:35;;;;;;;8.70;3.80;;;;;13.08;99639.20;;;;111073;1248;41677;-65
2022/03/18 08:34:04;;;;;;;8.20;3.20;;;;;15.22;99640.20;;;;111091;1246;41183;-67
2022/03/18 08:36:33;;;;;;;8.80;3.60;;;;;17.08;99626.60;;;;111122;1248;41246;-66
2022/03/18 08:39:03;;;;;;;8.30;3.70;;;;;18.76;99621.20;;;;111118;1248;41596;-67
2022/03/18 08:41:36;;;;;;;9.00;3.70;;;;;20.20;99616.80;;;;110901;1246;42251;-67
2022/03/18 08:44:05;;;;;;;8.70;3.70;;;;;21.30;99614.40;;;;110905;1249;41443;-67
2022/03/18 08:46:35;;;;;;;9.50;3.80;;;;;21.80;99610.20;;;;111125;1248;41142;-66
2022/03/18 08:49:04;;;;;;;8.70;3.60;;;;;22.20;99611.00;;;;111091;1247;41185;-67
2022/03/18 08:51:33;;;;;;;8.90;3.60;;;;;22.60;99605.20;;;;111097;1247;41214;-68
2022/03/18 08:54:03;;;;;;;8.40;3.90;;;;;22.80;99602.80;;;;111131;1246;41261;-68
2022/03/18 08:56:33;;;;;;;6.90;3.00;;;;;22.02;99607.40;;;;111158;1247;42464;-67
2022/03/18 08:59:06;;;;;;;7.50;3.20;;;;;22.62;99604.40;;;;110990;1247;41829;-67
2022/03/18 09:01:37;;;;;;;8.60;3.50;;;;;23.40;99602.40;;;;111111;1247;41675;-66
2022/03/18 09:04:07;;;;;;;8.70;3.00;;;;;23.92;99599.20;;;;111091;1247;41187;-67
2022/03/18 09:06:36;;;;;;;7.80;3.30;;;;;24.32;99592.80;;;;111150;1247;41610;-68
2022/03/18 09:09:05;;;;;;;8.40;3.60;;;;;24.30;99591.20;;;;111078;1247;41261;-69
2022/03/18 09:11:35;;;;;;;8.20;3.30;;;;;24.10;99588.40;;;;111101;1247;41262;-68
2022/03/18 09:14:04;;;;;;;9.00;3.30;;;;;23.50;99588.40;;;;111113;1247;41132;-68
2022/03/18 09:16:36;;;;;;;8.80;3.70;;;;;22.96;99593.60;;;;111140;1247;42590;-67
2022/03/18 09:19:07;;;;;;;7.60;2.90;;;;;22.96;99588.40;;;;111134;1247;41256;-68
2022/03/18 09:21:36;;;;;;;7.10;3.10;;;;;23.68;99588.80;;;;111412;1247;41673;-69
2022/03/18 09:24:06;;;;;;;9.00;3.00;;;;;24.62;99585.60;;;;111371;1247;41637;-68
2022/03/18 09:26:37;;;;;;;9.30;3.10;;;;;25.12;99584.20;;;;111394;1247;41570;-69
2022/03/18 09:29:08;;;;;;;7.90;3.10;;;;;25.60;99588.20;;;;111116;1247;42165;-65
2022/03/18 09:31:38;;;;;;;10.40;3.20;;;;;26.26;99583.80;;;;111046;1247;41723;-67
2022/03/18 09:34:08;;;;;;;8.00;3.00;;;;;26.70;99589.00;;;;110998;1247;42440;-67
2022/03/18 09:36:37;;;;;;;8.30;3.20;;;;;26.90;99584.40;;;;111122;1246;41538;-68
2022/03/18 09:39:09;;;;;;;7.30;2.90;;;;;27.18;99585.40;;;;111087;1247;41193;-68
2022/03/18 09:41:39;;;;;;;9.10;3.10;;;;;27.40;99584.00;;;;111136;1247;41143;-68
2022/03/18 09:44:10;;;;;;;8.90;2.80;;;;;27.74;99583.60;;;;110954;1249;41179;-68
2022/03/18 09:46:43;;;;;;;8.00;3.10;;;;;28.14;99586.20;;;;111069;1247;41132;-68
2022/03/18 09:49:19;;;;;;;7.20;2.90;;;;;28.54;99585.40;;;;110951;1247;41146;-67
2022/03/18 09:51:48;;;;;;;6.70;3.00;;;;;29.20;99586.60;;;;111008;1248;41141;-66
2022/03/18 09:54:29;;;;;;;8.00;3.20;;;;;28.82;99581.80;;;;111121;1247;41766;-69
2022/03/18 09:56:59;;;;;;;8.30;3.10;;;;;28.96;99585.20;;;;111047;1247;41256;-69
2022/03/18 09:59:29;;;;;;;7.30;3.30;;;;;29.02;99583.20;;;;111137;1247;41143;-69
2022/03/18 10:02:20;;;;;;;7.50;3.20;;;;;29.02;99574.80;;;;110995;1247;41154;-68
2022/03/18 10:04:55;;;;;;;7.70;3.00;;;;;28.76;99575.80;;;;111104;1247;41812;-68
2022/03/18 10:07:25;;;;;;;6.40;2.30;;;;;28.86;99575.80;;;;110784;1250;41147;-69
2022/03/18 10:10:05;;;;;;;7.00;2.80;;;;;29.48;99575.80;;;;111142;1247;41540;-67
2022/03/18 10:12:37;;;;;;;7.90;3.00;;;;;29.80;99572.20;;;;111079;1247;41612;-69
2022/03/18 10:15:14;;;;;;;7.40;2.90;;;;;30.00;99575.60;;;;111065;1246;41821;-69
2022/03/18 10:17:50;;;;;;;7.90;2.90;;;;;30.02;99571.80;;;;111057;1248;41162;-68
2022/03/18 10:20:35;;;;;;;8.10;2.90;;;;;30.66;99570.20;;;;110978;1248;41463;-67
2022/03/18 10:23:19;;;;;;;7.60;3.00;;;;;31.36;99570.00;;;;111059;1247;41424;-70
2022/03/18 10:25:52;;;;;;;6.90;2.70;;;;;31.64;99570.80;;;;111067;1247;41965;-69
2022/03/18 10:29:11;;;;;;;6.90;2.90;;;;;31.90;99574.00;;;;111102;1247;42362;-69
2022/03/18 10:31:30;;;;;;;8.20;3.30;;;;;32.16;99576.60;;;;111089;1247;41125;-68
2022/03/18 10:37:13;;;;;;;8.00;2.80;;;;;31.50;99569.00;;;;111052;1247;41151;-69
2022/03/18 10:39:50;;;;;;;6.80;2.60;;;;;32.24;99568.20;;;;111051;1248;41253;-70
2022/03/18 10:42:20;;;;;;;6.10;2.60;;;;;33.06;99571.60;;;;111121;1247;42504;-70
2022/03/18 10:44:51;;;;;;;7.00;3.10;;;;;33.88;99568.60;;;;111105;1247;41601;-69
2022/03/18 10:47:28;;;;;;;7.80;2.90;;;;;34.30;99562.60;;;;110994;1247;41164;-72
2022/03/18 10:50:19;;;;;;;11.80;4.90;;;;;33.82;99560.00;;;;111110;1247;41134;-70
2022/03/18 10:52:48;;;;;;;9.20;3.90;;;;;31.86;99554.40;;;;110870;1248;41160;-69
2022/03/18 10:55:19;;;;;;;6.60;2.80;;;;;31.90;99551.20;;;;111123;1247;41156;-68
2022/03/18 10:58:02;;;;;;;6.90;2.80;;;;;32.52;99556.40;;;;111096;1247;41509;-69
2022/03/18 11:00:34;;;;;;;9.40;2.90;;;;;33.56;99554.00;;;;111084;1247;41132;-69
2022/03/18 11:03:04;;;;;;;7.90;3.00;;;;;34.40;99548.80;;;;111007;1247;41286;-69
2022/03/18 11:05:36;;;;;;;10.50;3.40;;;;;35.08;99548.80;;;;111066;1247;41180;-68
2022/03/18 11:08:13;;;;;;;7.40;2.60;;;;;35.50;99557.20;;;;110886;1248;41324;-69
2022/03/18 11:13:48;;;;;;;8.40;3.30;;;;;36.62;99566.60;;;;111076;1247;41276;-68
2022/03/18 11:16:25;;;;;;;8.00;3.10;;;;;36.00;99559.80;;;;111120;1247;41176;-69
2022/03/18 11:18:55;;;;;;;6.70;2.80;;;;;35.62;99570.40;;;;111052;1247;41262;-69
2022/03/18 11:21:25;;;;;;;;;;;;;34.68;99573.80;;;;111079;1247;41286;-68
2022/03/18 11:23:55;;;;;;;7.00;2.90;;;;;35.30;99571.60;;;;111093;1247;41549;-68
2022/03/18 11:26:24;;;;;;;7.60;2.90;;;;;35.80;99571.00;;;;111034;1248;41598;-68
2022/03/18 11:29:28;;;;;;;5.80;2.50;;;;;36.20;99564.00;;;;111125;1247;41975;-70
2022/03/18 11:32:09;;;;;;;6.40;2.80;;;;;36.70;99564.80;;;;110425;1256;41147;-70
2022/03/18 11:34:57;;;;;;;9.20;2.90;;;;;36.90;99562.20;;;;110577;1256;41148;-69
2022/03/18 11:37:26;;;;;;;7.00;2.60;;;;;36.80;99565.60;;;;110293;1257;41452;-69
2022/03/18 11:40:17;;;;;;;6.60;2.50;;;;;36.80;99561.20;;;;110454;1256;41153;-70
2022/03/18 11:42:49;;;;;;;6.60;2.80;;;;;36.76;99556.60;;;;110464;1254;41947;-68
2022/03/18 11:45:37;;;;;;;7.10;2.50;;;;;34.68;99554.20;;;;110286;1256;41157;-70
2022/03/18 11:48:34;;;;;;;6.20;2.50;;;;;33.58;99554.00;;;;110418;1254;41275;-68
2022/03/18 11:51:25;;;;;;;6.40;2.80;;;;;33.92;99551.80;;;;110335;1255;42209;-70
2022/03/18 11:53:55;;;;;;;7.90;2.80;;;;;33.34;99546.40;;;;110415;1256;41182;-72
2022/03/18 11:56:40;;;;;;;;;;;;;31.94;99555.20;;;;110370;1256;41389;-71
2022/03/18 11:59:32;;;;;;;8.00;2.70;;;;;31.60;99546.80;;;;110180;1256;41161;-70
2022/03/18 12:02:05;;;;;;;5.90;2.50;;;;;31.42;99544.40;;;;110422;1255;41269;-71
2022/03/18 12:04:34;;;;;;;8.50;3.20;;;;;31.36;99546.20;;;;110128;1257;41929;-69
2022/03/18 12:07:19;;;;;;;7.00;2.60;;;;;31.08;99545.80;;;;110469;1250;41144;-71
2022/03/18 12:09:57;;;;;;;7.00;2.80;;;;;31.04;99548.80;;;;111030;1247;41251;-71
2022/03/18 12:12:28;;;;;;;7.00;2.70;;;;;30.80;99542.80;;;;111069;1247;41747;-70
2022/03/18 12:15:07;;;;;;;6.30;2.50;;;;;31.20;99541.40;;;;111178;1246;41655;-71
2022/03/18 12:17:46;;;;;;;6.30;2.60;;;;;31.18;99535.20;;;;111079;1247;41130;-70
2022/03/18 12:20:34;;;;;;;7.10;2.60;;;;;31.40;99525.40;;;;111025;1247;41610;-69
2022/03/18 12:23:08;;;;;;;7.50;2.70;;;;;31.06;99526.20;;;;111154;1247;41252;-71
2022/03/18 12:25:38;;;;;;;6.80;2.50;;;;;30.50;99522.60;;;;111035;1247;41603;-70
2022/03/18 12:28:09;;;;;;;6.60;2.50;;;;;29.84;99526.00;;;;111035;1247;41919;-70
2022/03/18 12:30:38;;;;;;;6.40;2.80;;;;;28.92;99526.40;;;;110830;1247;41804;-70
2022/03/18 12:33:10;;;;;;;7.20;2.50;;;;;28.08;99530.80;;;;111028;1247;41153;-73
2022/03/18 12:35:43;;;;;;;7.00;2.70;;;;;27.64;99533.80;;;;111137;1247;41151;-70
2022/03/18 12:38:14;;;;;;;8.50;3.00;;;;;27.12;99529.40;;;;110872;1250;41165;-70
2022/03/18 12:40:44;;;;;;;6.90;2.50;;;;;26.80;99524.80;;;;111074;1247;41721;-72
2022/03/18 12:43:18;;;;;;;7.70;3.20;;;;;26.56;99521.40;;;;111170;1246;41257;-69
2022/03/18 12:45:47;;;;;;;7.50;2.70;;;;;25.24;99517.60;;;;111353;1247;41124;-70
2022/03/18 12:48:18;;;;;;;6.40;2.80;;;;;23.36;99527.20;;;;110928;1250;42332;-69
2022/03/18 12:50:49;;;;;;;7.60;2.70;;;;;23.00;99529.40;;;;110906;1249;41339;-70
2022/03/18 12:53:33;;;;;;;6.80;2.60;;;;;22.64;99524.60;;;;110979;1248;41903;-68
2022/03/18 12:56:16;;;;;;;8.60;3.10;;;;;22.40;99518.20;;;;110909;1250;41260;-72
2022/03/18 12:58:49;;;;;;;6.40;2.60;;;;;22.50;99520.00;;;;111087;1247;41709;-72